sensor_id;sensor_type;location;lat;lon;timestamp;P1;durP1;ratioP1;P2;durP2;ratioP2
59271;SDS011;45043;51.068;7.026;2023-03-26T00:01:02;17.70;;;3.83;;
59271;SDS011;45043;51.068;7.026;2023-03-26T00:04:05;23.33;;;5.87;;
59271;SDS011;45043;51.068;7.026;2023-03-26T00:07:06;20.47;;;4.43;;
59271;SDS011;45043;51.068;7.026;2023-03-26T00:10:09;22.80;;;4.57;;
59271;SDS011;45043;51.068;7.026;2023-03-26T00:13:14;19.87;;;4.60;;
59271;SDS011;45043;51.068;7.026;2023-03-26T00:16:17;22.13;;;4.43;;
59271;SDS011;45043;51.068;7.026;2023-03-26T00:19:18;20.50;;;4.97;;
59271;SDS011;45043;51.068;7.026;2023-03-26T00:22:19;18.50;;;4.03;;
59271;SDS011;45043;51.068;7.026;2023-03-26T00:25:20;22.10;;;4.57;;
59271;SDS011;45043;51.068;7.026;2023-03-26T00:28:22;18.17;;;4.60;;
59271;SDS011;45043;51.068;7.026;2023-03-26T00:31:23;19.60;;;4.17;;
59271;SDS011;45043;51.068;7.026;2023-03-26T00:34:24;22.80;;;4.77;;
59271;SDS011;45043;51.068;7.026;2023-03-26T00:37:25;20.27;;;4.80;;
59271;SDS011;45043;51.068;7.026;2023-03-26T00:40:26;23.63;;;4.37;;
59271;SDS011;45043;51.068;7.026;2023-03-26T00:43:26;21.73;;;4.80;;
59271;SDS011;45043;51.068;7.026;2023-03-26T00:46:31;19.50;;;4.90;;
59271;SDS011;45043;51.068;7.026;2023-03-26T00:49:32;17.83;;;5.10;;
59271;SDS011;45043;51.068;7.026;2023-03-26T00:52:33;24.60;;;4.60;;
59271;SDS011;45043;51.068;7.026;2023-03-26T00:55:35;18.90;;;4.53;;
59271;SDS011;45043;51.068;7.026;2023-03-26T00:58:35;21.10;;;4.17;;
59271;SDS011;45043;51.068;7.026;2023-03-26T01:01:36;15.83;;;3.60;;
59271;SDS011;45043;51.068;7.026;2023-03-26T01:04:37;23.50;;;4.80;;
59271;SDS011;45043;51.068;7.026;2023-03-26T01:07:37;17.03;;;4.20;;
59271;SDS011;45043;51.068;7.026;2023-03-26T01:10:37;21.33;;;4.60;;
59271;SDS011;45043;51.068;7.026;2023-03-26T01:13:42;24.07;;;5.17;;
59271;SDS011;45043;51.068;7.026;2023-03-26T01:17:06;18.23;;;4.20;;
59271;SDS011;45043;51.068;7.026;2023-03-26T01:23:16;22.80;;;4.93;;
59271;SDS011;45043;51.068;7.026;2023-03-26T01:35:58;19.97;;;4.20;;
59271;SDS011;45043;51.068;7.026;2023-03-26T01:39:15;19.93;;;4.53;;
59271;SDS011;45043;51.068;7.026;2023-03-26T01:43:05;19.00;;;5.10;;
59271;SDS011;45043;51.068;7.026;2023-03-26T01:45:54;24.80;;;5.30;;
59271;SDS011;45043;51.068;7.026;2023-03-26T01:48:57;22.60;;;5.07;;
59271;SDS011;45043;51.068;7.026;2023-03-26T01:51:58;20.50;;;4.63;;
59271;SDS011;45043;51.068;7.026;2023-03-26T01:54:58;22.60;;;5.03;;
59271;SDS011;45043;51.068;7.026;2023-03-26T02:01:13;21.10;;;4.90;;
59271;SDS011;45043;51.068;7.026;2023-03-26T02:04:25;19.80;;;4.20;;
59271;SDS011;45043;51.068;7.026;2023-03-26T02:07:38;17.73;;;4.50;;
59271;SDS011;45043;51.068;7.026;2023-03-26T02:10:59;19.30;;;5.37;;
59271;SDS011;45043;51.068;7.026;2023-03-26T02:14:10;18.93;;;4.17;;
59271;SDS011;45043;51.068;7.026;2023-03-26T02:17:12;16.17;;;4.63;;
59271;SDS011;45043;51.068;7.026;2023-03-26T02:20:13;19.33;;;4.50;;
59271;SDS011;45043;51.068;7.026;2023-03-26T02:23:15;17.43;;;4.30;;
59271;SDS011;45043;51.068;7.026;2023-03-26T02:26:16;20.93;;;4.30;;
59271;SDS011;45043;51.068;7.026;2023-03-26T02:29:44;15.80;;;4.50;;
59271;SDS011;45043;51.068;7.026;2023-03-26T02:32:46;16.67;;;4.27;;
59271;SDS011;45043;51.068;7.026;2023-03-26T02:35:52;14.73;;;3.97;;
59271;SDS011;45043;51.068;7.026;2023-03-26T02:38:53;19.53;;;3.93;;
59271;SDS011;45043;51.068;7.026;2023-03-26T02:41:54;15.00;;;4.17;;
59271;SDS011;45043;51.068;7.026;2023-03-26T02:44:55;20.90;;;4.67;;
59271;SDS011;45043;51.068;7.026;2023-03-26T02:48:14;16.53;;;5.07;;
59271;SDS011;45043;51.068;7.026;2023-03-26T02:51:17;15.23;;;3.90;;
59271;SDS011;45043;51.068;7.026;2023-03-26T02:54:29;14.93;;;3.97;;
59271;SDS011;45043;51.068;7.026;2023-03-26T02:57:37;16.60;;;4.60;;
59271;SDS011;45043;51.068;7.026;2023-03-26T03:00:40;14.67;;;4.20;;
59271;SDS011;45043;51.068;7.026;2023-03-26T03:04:01;13.47;;;4.13;;
59271;SDS011;45043;51.068;7.026;2023-03-26T03:07:09;21.67;;;4.70;;
59271;SDS011;45043;51.068;7.026;2023-03-26T03:10:14;12.70;;;4.67;;
59271;SDS011;45043;51.068;7.026;2023-03-26T03:13:33;15.27;;;4.60;;
59271;SDS011;45043;51.068;7.026;2023-03-26T03:16:33;14.87;;;3.70;;
59271;SDS011;45043;51.068;7.026;2023-03-26T03:19:43;11.60;;;3.70;;
59271;SDS011;45043;51.068;7.026;2023-03-26T03:22:44;14.20;;;4.23;;
59271;SDS011;45043;51.068;7.026;2023-03-26T03:25:45;14.50;;;3.50;;
59271;SDS011;45043;51.068;7.026;2023-03-26T03:28:48;13.93;;;4.23;;
59271;SDS011;45043;51.068;7.026;2023-03-26T03:31:49;16.97;;;4.20;;
59271;SDS011;45043;51.068;7.026;2023-03-26T03:35:12;16.13;;;4.03;;
59271;SDS011;45043;51.068;7.026;2023-03-26T03:38:16;15.17;;;3.83;;
59271;SDS011;45043;51.068;7.026;2023-03-26T03:41:21;14.97;;;4.20;;
59271;SDS011;45043;51.068;7.026;2023-03-26T03:44:21;18.00;;;3.77;;
59271;SDS011;45043;51.068;7.026;2023-03-26T03:47:22;17.30;;;3.97;;
59271;SDS011;45043;51.068;7.026;2023-03-26T03:50:23;11.17;;;3.87;;
59271;SDS011;45043;51.068;7.026;2023-03-26T03:53:46;17.37;;;5.27;;
59271;SDS011;45043;51.068;7.026;2023-03-26T03:56:49;10.37;;;3.43;;
59271;SDS011;45043;51.068;7.026;2023-03-26T04:00:07;16.43;;;4.30;;
59271;SDS011;45043;51.068;7.026;2023-03-26T04:03:15;14.40;;;3.80;;
59271;SDS011;45043;51.068;7.026;2023-03-26T04:06:18;15.20;;;4.10;;
59271;SDS011;45043;51.068;7.026;2023-03-26T04:09:22;15.37;;;4.13;;
59271;SDS011;45043;51.068;7.026;2023-03-26T04:12:23;17.87;;;4.30;;
59271;SDS011;45043;51.068;7.026;2023-03-26T04:15:31;13.07;;;4.27;;
59271;SDS011;45043;51.068;7.026;2023-03-26T04:18:32;17.10;;;4.73;;
59271;SDS011;45043;51.068;7.026;2023-03-26T04:21:40;18.97;;;4.43;;
59271;SDS011;45043;51.068;7.026;2023-03-26T04:24:42;19.70;;;4.33;;
59271;SDS011;45043;51.068;7.026;2023-03-26T04:27:43;18.40;;;4.13;;
59271;SDS011;45043;51.068;7.026;2023-03-26T04:30:49;14.70;;;3.83;;
59271;SDS011;45043;51.068;7.026;2023-03-26T04:34:07;11.20;;;4.13;;
59271;SDS011;45043;51.068;7.026;2023-03-26T04:37:36;13.80;;;3.97;;
59271;SDS011;45043;51.068;7.026;2023-03-26T04:40:47;18.67;;;4.07;;
59271;SDS011;45043;51.068;7.026;2023-03-26T04:44:06;17.40;;;4.67;;
59271;SDS011;45043;51.068;7.026;2023-03-26T04:47:23;11.23;;;3.77;;
59271;SDS011;45043;51.068;7.026;2023-03-26T04:50:24;13.33;;;4.10;;
59271;SDS011;45043;51.068;7.026;2023-03-26T04:53:25;13.53;;;3.90;;
59271;SDS011;45043;51.068;7.026;2023-03-26T04:59:52;16.30;;;3.83;;
59271;SDS011;45043;51.068;7.026;2023-03-26T05:02:53;16.13;;;4.00;;
59271;SDS011;45043;51.068;7.026;2023-03-26T05:05:57;18.07;;;3.67;;
59271;SDS011;45043;51.068;7.026;2023-03-26T05:08:59;11.63;;;3.70;;
59271;SDS011;45043;51.068;7.026;2023-03-26T05:12:19;11.20;;;3.73;;
59271;SDS011;45043;51.068;7.026;2023-03-26T05:15:31;13.80;;;3.77;;
59271;SDS011;45043;51.068;7.026;2023-03-26T05:18:40;8.90;;;3.00;;
59271;SDS011;45043;51.068;7.026;2023-03-26T05:21:42;14.47;;;4.07;;
59271;SDS011;45043;51.068;7.026;2023-03-26T05:24:42;13.53;;;4.00;;
59271;SDS011;45043;51.068;7.026;2023-03-26T05:27:43;13.50;;;3.43;;
59271;SDS011;45043;51.068;7.026;2023-03-26T05:30:45;14.30;;;3.77;;
59271;SDS011;45043;51.068;7.026;2023-03-26T05:33:46;13.10;;;3.60;;
59271;SDS011;45043;51.068;7.026;2023-03-26T05:36:47;13.67;;;3.50;;
59271;SDS011;45043;51.068;7.026;2023-03-26T05:40:08;13.97;;;3.40;;
59271;SDS011;45043;51.068;7.026;2023-03-26T05:43:18;13.33;;;3.37;;
59271;SDS011;45043;51.068;7.026;2023-03-26T05:46:29;14.37;;;3.70;;
59271;SDS011;45043;51.068;7.026;2023-03-26T05:49:30;13.83;;;3.80;;
59271;SDS011;45043;51.068;7.026;2023-03-26T05:52:31;9.50;;;3.23;;
59271;SDS011;45043;51.068;7.026;2023-03-26T05:56:00;11.13;;;3.37;;
59271;SDS011;45043;51.068;7.026;2023-03-26T05:59:39;16.20;;;3.77;;
59271;SDS011;45043;51.068;7.026;2023-03-26T06:03:13;15.23;;;4.20;;
59271;SDS011;45043;51.068;7.026;2023-03-26T06:06:35;11.67;;;3.80;;
59271;SDS011;45043;51.068;7.026;2023-03-26T06:09:39;13.40;;;3.53;;
59271;SDS011;45043;51.068;7.026;2023-03-26T06:12:40;11.67;;;3.57;;
59271;SDS011;45043;51.068;7.026;2023-03-26T06:15:42;12.10;;;3.27;;
59271;SDS011;45043;51.068;7.026;2023-03-26T06:19:09;12.87;;;3.43;;
59271;SDS011;45043;51.068;7.026;2023-03-26T06:22:32;8.03;;;3.27;;
59271;SDS011;45043;51.068;7.026;2023-03-26T06:25:46;11.40;;;3.30;;
59271;SDS011;45043;51.068;7.026;2023-03-26T06:28:55;13.13;;;3.87;;
59271;SDS011;45043;51.068;7.026;2023-03-26T06:32:28;12.33;;;3.47;;
59271;SDS011;45043;51.068;7.026;2023-03-26T06:35:39;12.50;;;4.10;;
59271;SDS011;45043;51.068;7.026;2023-03-26T06:38:42;12.30;;;3.93;;
59271;SDS011;45043;51.068;7.026;2023-03-26T06:41:43;12.13;;;3.47;;
59271;SDS011;45043;51.068;7.026;2023-03-26T06:44:55;11.60;;;3.57;;
59271;SDS011;45043;51.068;7.026;2023-03-26T06:48:08;11.10;;;3.73;;
59271;SDS011;45043;51.068;7.026;2023-03-26T06:51:28;10.83;;;3.50;;
59271;SDS011;45043;51.068;7.026;2023-03-26T06:54:47;11.10;;;3.40;;
59271;SDS011;45043;51.068;7.026;2023-03-26T06:58:08;17.20;;;4.63;;
59271;SDS011;45043;51.068;7.026;2023-03-26T07:01:29;9.47;;;3.50;;
59271;SDS011;45043;51.068;7.026;2023-03-26T07:04:48;10.80;;;3.73;;
59271;SDS011;45043;51.068;7.026;2023-03-26T07:08:07;8.20;;;3.20;;
59271;SDS011;45043;51.068;7.026;2023-03-26T07:11:39;12.27;;;3.87;;
59271;SDS011;45043;51.068;7.026;2023-03-26T07:15:09;13.87;;;4.13;;
59271;SDS011;45043;51.068;7.026;2023-03-26T07:18:27;10.50;;;3.30;;
59271;SDS011;45043;51.068;7.026;2023-03-26T07:21:28;10.07;;;3.30;;
59271;SDS011;45043;51.068;7.026;2023-03-26T07:24:29;9.67;;;3.60;;
59271;SDS011;45043;51.068;7.026;2023-03-26T07:35:23;10.33;;;3.33;;
59271;SDS011;45043;51.068;7.026;2023-03-26T07:38:52;10.90;;;3.77;;
59271;SDS011;45043;51.068;7.026;2023-03-26T07:42:53;8.00;;;3.00;;
59271;SDS011;45043;51.068;7.026;2023-03-26T07:46:19;10.90;;;3.27;;
59271;SDS011;45043;51.068;7.026;2023-03-26T07:49:44;9.37;;;3.63;;
59271;SDS011;45043;51.068;7.026;2023-03-26T07:52:55;12.20;;;4.07;;
59271;SDS011;45043;51.068;7.026;2023-03-26T07:59:47;9.67;;;3.70;;
59271;SDS011;45043;51.068;7.026;2023-03-26T08:06:30;15.57;;;4.10;;
59271;SDS011;45043;51.068;7.026;2023-03-26T08:09:58;11.73;;;3.80;;
59271;SDS011;45043;51.068;7.026;2023-03-26T08:26:35;14.77;;;4.50;;
59271;SDS011;45043;51.068;7.026;2023-03-26T08:29:51;9.27;;;3.77;;
59271;SDS011;45043;51.068;7.026;2023-03-26T08:32:58;9.20;;;3.73;;
59271;SDS011;45043;51.068;7.026;2023-03-26T08:36:04;10.10;;;4.20;;
59271;SDS011;45043;51.068;7.026;2023-03-26T08:39:05;12.13;;;4.50;;
59271;SDS011;45043;51.068;7.026;2023-03-26T09:02:00;15.93;;;4.57;;
59271;SDS011;45043;51.068;7.026;2023-03-26T09:25:24;6.13;;;2.90;;
59271;SDS011;45043;51.068;7.026;2023-03-26T09:28:54;5.43;;;2.30;;
59271;SDS011;45043;51.068;7.026;2023-03-26T09:46:11;4.33;;;2.30;;
59271;SDS011;45043;51.068;7.026;2023-03-26T10:03:05;6.23;;;2.37;;
59271;SDS011;45043;51.068;7.026;2023-03-26T10:06:48;3.87;;;2.10;;
59271;SDS011;45043;51.068;7.026;2023-03-26T10:10:02;3.73;;;2.20;;
59271;SDS011;45043;51.068;7.026;2023-03-26T10:13:19;5.23;;;2.47;;
59271;SDS011;45043;51.068;7.026;2023-03-26T10:16:37;3.43;;;2.30;;
59271;SDS011;45043;51.068;7.026;2023-03-26T10:27:25;4.23;;;2.50;;
59271;SDS011;45043;51.068;7.026;2023-03-26T10:37:49;2.87;;;1.90;;
59271;SDS011;45043;51.068;7.026;2023-03-26T10:41:22;2.80;;;1.93;;
59271;SDS011;45043;51.068;7.026;2023-03-26T10:51:51;3.00;;;2.33;;
59271;SDS011;45043;51.068;7.026;2023-03-26T10:55:40;2.97;;;1.90;;
59271;SDS011;45043;51.068;7.026;2023-03-26T10:58:26;3.00;;;2.10;;
59271;SDS011;45043;51.068;7.026;2023-03-26T11:01:38;3.23;;;2.07;;
59271;SDS011;45043;51.068;7.026;2023-03-26T11:21:35;5.77;;;4.00;;
59271;SDS011;45043;51.068;7.026;2023-03-26T11:28:08;9.73;;;6.03;;
59271;SDS011;45043;51.068;7.026;2023-03-26T11:31:38;10.60;;;5.93;;
59271;SDS011;45043;51.068;7.026;2023-03-26T11:34:51;5.10;;;2.90;;
59271;SDS011;45043;51.068;7.026;2023-03-26T11:37:58;3.90;;;2.20;;
59271;SDS011;45043;51.068;7.026;2023-03-26T11:41:03;2.47;;;2.17;;
59271;SDS011;45043;51.068;7.026;2023-03-26T11:44:23;3.13;;;2.23;;
59271;SDS011;45043;51.068;7.026;2023-03-26T11:47:29;6.27;;;4.00;;
59271;SDS011;45043;51.068;7.026;2023-03-26T11:50:36;3.53;;;2.67;;
59271;SDS011;45043;51.068;7.026;2023-03-26T11:53:43;5.93;;;3.43;;
59271;SDS011;45043;51.068;7.026;2023-03-26T11:56:47;4.27;;;2.87;;
59271;SDS011;45043;51.068;7.026;2023-03-26T12:00:04;3.60;;;2.90;;
59271;SDS011;45043;51.068;7.026;2023-03-26T12:03:15;4.20;;;2.67;;
59271;SDS011;45043;51.068;7.026;2023-03-26T12:06:23;5.80;;;2.77;;
59271;SDS011;45043;51.068;7.026;2023-03-26T12:09:26;4.27;;;2.73;;
59271;SDS011;45043;51.068;7.026;2023-03-26T12:12:32;4.60;;;2.30;;
59271;SDS011;45043;51.068;7.026;2023-03-26T12:15:40;4.03;;;2.63;;
59271;SDS011;45043;51.068;7.026;2023-03-26T12:18:43;4.97;;;3.23;;
59271;SDS011;45043;51.068;7.026;2023-03-26T12:21:47;4.63;;;3.40;;
59271;SDS011;45043;51.068;7.026;2023-03-26T12:24:49;5.00;;;4.50;;
59271;SDS011;45043;51.068;7.026;2023-03-26T12:28:27;4.33;;;3.00;;
59271;SDS011;45043;51.068;7.026;2023-03-26T12:31:30;4.90;;;3.27;;
59271;SDS011;45043;51.068;7.026;2023-03-26T12:34:41;4.33;;;2.53;;
59271;SDS011;45043;51.068;7.026;2023-03-26T12:37:42;3.97;;;2.83;;
59271;SDS011;45043;51.068;7.026;2023-03-26T12:40:43;3.00;;;2.40;;
59271;SDS011;45043;51.068;7.026;2023-03-26T12:43:49;4.83;;;2.37;;
59271;SDS011;45043;51.068;7.026;2023-03-26T12:46:55;3.03;;;2.20;;
59271;SDS011;45043;51.068;7.026;2023-03-26T12:50:26;3.33;;;2.30;;
59271;SDS011;45043;51.068;7.026;2023-03-26T12:57:16;4.13;;;3.30;;
59271;SDS011;45043;51.068;7.026;2023-03-26T13:20:55;2.37;;;2.10;;
59271;SDS011;45043;51.068;7.026;2023-03-26T13:34:00;6.53;;;4.00;;
59271;SDS011;45043;51.068;7.026;2023-03-26T13:37:30;6.67;;;4.00;;
59271;SDS011;45043;51.068;7.026;2023-03-26T13:40:45;3.90;;;2.17;;
59271;SDS011;45043;51.068;7.026;2023-03-26T13:46:57;2.83;;;2.10;;
59271;SDS011;45043;51.068;7.026;2023-03-26T13:50:05;4.37;;;2.20;;
59271;SDS011;45043;51.068;7.026;2023-03-26T13:53:20;2.23;;;1.70;;
59271;SDS011;45043;51.068;7.026;2023-03-26T13:56:25;2.10;;;2.00;;
59271;SDS011;45043;51.068;7.026;2023-03-26T13:59:53;9.40;;;6.00;;
59271;SDS011;45043;51.068;7.026;2023-03-26T14:02:56;7.73;;;4.80;;
59271;SDS011;45043;51.068;7.026;2023-03-26T14:09:51;1.70;;;1.40;;
59271;SDS011;45043;51.068;7.026;2023-03-26T14:16:42;5.07;;;1.60;;
59271;SDS011;45043;51.068;7.026;2023-03-26T14:26:14;1.93;;;1.53;;
59271;SDS011;45043;51.068;7.026;2023-03-26T14:33:32;2.30;;;1.30;;
59271;SDS011;45043;51.068;7.026;2023-03-26T14:47:11;1.40;;;1.30;;
59271;SDS011;45043;51.068;7.026;2023-03-26T15:03:08;2.50;;;1.80;;
59271;SDS011;45043;51.068;7.026;2023-03-26T15:16:23;1.93;;;1.73;;
59271;SDS011;45043;51.068;7.026;2023-03-26T15:33:18;1.90;;;1.70;;
59271;SDS011;45043;51.068;7.026;2023-03-26T15:39:58;1.30;;;1.20;;
59271;SDS011;45043;51.068;7.026;2023-03-26T15:43:12;1.40;;;1.40;;
59271;SDS011;45043;51.068;7.026;2023-03-26T15:49:38;1.20;;;1.10;;
59271;SDS011;45043;51.068;7.026;2023-03-26T15:53:05;1.40;;;1.30;;
59271;SDS011;45043;51.068;7.026;2023-03-26T15:59:36;1.83;;;1.40;;
59271;SDS011;45043;51.068;7.026;2023-03-26T16:03:32;2.17;;;1.57;;
59271;SDS011;45043;51.068;7.026;2023-03-26T16:06:29;1.40;;;1.30;;
59271;SDS011;45043;51.068;7.026;2023-03-26T16:09:46;1.77;;;1.67;;
59271;SDS011;45043;51.068;7.026;2023-03-26T16:16:20;1.70;;;1.60;;
59271;SDS011;45043;51.068;7.026;2023-03-26T16:19:32;2.70;;;1.70;;
59271;SDS011;45043;51.068;7.026;2023-03-26T16:22:44;2.10;;;1.90;;
59271;SDS011;45043;51.068;7.026;2023-03-26T16:26:08;2.50;;;2.07;;
59271;SDS011;45043;51.068;7.026;2023-03-26T16:32:21;1.73;;;1.63;;
59271;SDS011;45043;51.068;7.026;2023-03-26T16:35:37;3.17;;;2.60;;
59271;SDS011;45043;51.068;7.026;2023-03-26T16:38:47;3.33;;;1.50;;
59271;SDS011;45043;51.068;7.026;2023-03-26T16:41:54;4.70;;;3.00;;
59271;SDS011;45043;51.068;7.026;2023-03-26T16:51:12;2.17;;;1.77;;
59271;SDS011;45043;51.068;7.026;2023-03-26T16:54:46;6.00;;;2.83;;
59271;SDS011;45043;51.068;7.026;2023-03-26T17:04:34;5.20;;;2.30;;
59271;SDS011;45043;51.068;7.026;2023-03-26T17:07:37;2.70;;;2.50;;
59271;SDS011;45043;51.068;7.026;2023-03-26T17:10:54;4.13;;;2.70;;
59271;SDS011;45043;51.068;7.026;2023-03-26T17:20:54;3.23;;;2.40;;
59271;SDS011;45043;51.068;7.026;2023-03-26T17:33:35;4.30;;;2.73;;
59271;SDS011;45043;51.068;7.026;2023-03-26T17:36:41;2.87;;;2.47;;
59271;SDS011;45043;51.068;7.026;2023-03-26T17:43:01;4.27;;;2.57;;
59271;SDS011;45043;51.068;7.026;2023-03-26T17:49:38;7.03;;;4.63;;
59271;SDS011;45043;51.068;7.026;2023-03-26T17:55:47;7.00;;;3.93;;
59271;SDS011;45043;51.068;7.026;2023-03-26T17:58:49;10.13;;;5.33;;
59271;SDS011;45043;51.068;7.026;2023-03-26T18:02:00;10.10;;;4.93;;
59271;SDS011;45043;51.068;7.026;2023-03-26T18:05:04;13.43;;;5.83;;
59271;SDS011;45043;51.068;7.026;2023-03-26T18:11:31;13.40;;;5.60;;
59271;SDS011;45043;51.068;7.026;2023-03-26T18:17:46;14.63;;;5.70;;
59271;SDS011;45043;51.068;7.026;2023-03-26T18:20:47;9.13;;;4.60;;
59271;SDS011;45043;51.068;7.026;2023-03-26T18:23:50;14.73;;;5.10;;
59271;SDS011;45043;51.068;7.026;2023-03-26T18:26:52;9.73;;;4.80;;
59271;SDS011;45043;51.068;7.026;2023-03-26T18:33:12;12.17;;;4.73;;
59271;SDS011;45043;51.068;7.026;2023-03-26T18:36:15;11.60;;;4.67;;
59271;SDS011;45043;51.068;7.026;2023-03-26T18:39:17;14.23;;;4.50;;
59271;SDS011;45043;51.068;7.026;2023-03-26T18:42:18;12.80;;;4.73;;
59271;SDS011;45043;51.068;7.026;2023-03-26T18:45:32;14.33;;;4.77;;
59271;SDS011;45043;51.068;7.026;2023-03-26T18:48:35;16.93;;;4.63;;
59271;SDS011;45043;51.068;7.026;2023-03-26T18:51:35;9.80;;;3.93;;
59271;SDS011;45043;51.068;7.026;2023-03-26T18:54:36;12.30;;;4.50;;
59271;SDS011;45043;51.068;7.026;2023-03-26T18:57:36;14.27;;;4.70;;
59271;SDS011;45043;51.068;7.026;2023-03-26T19:00:37;15.10;;;5.00;;
59271;SDS011;45043;51.068;7.026;2023-03-26T19:03:39;10.40;;;4.70;;
59271;SDS011;45043;51.068;7.026;2023-03-26T19:06:44;12.87;;;5.57;;
59271;SDS011;45043;51.068;7.026;2023-03-26T19:09:45;11.20;;;4.80;;
59271;SDS011;45043;51.068;7.026;2023-03-26T19:12:52;11.97;;;4.33;;
59271;SDS011;45043;51.068;7.026;2023-03-26T19:15:53;13.53;;;4.80;;
59271;SDS011;45043;51.068;7.026;2023-03-26T19:18:56;10.20;;;4.37;;
59271;SDS011;45043;51.068;7.026;2023-03-26T19:21:58;10.90;;;3.97;;
59271;SDS011;45043;51.068;7.026;2023-03-26T19:24:59;10.97;;;4.30;;
59271;SDS011;45043;51.068;7.026;2023-03-26T19:28:01;12.90;;;3.90;;
59271;SDS011;45043;51.068;7.026;2023-03-26T19:31:47;9.07;;;4.20;;
59271;SDS011;45043;51.068;7.026;2023-03-26T19:37:33;12.63;;;3.77;;
59271;SDS011;45043;51.068;7.026;2023-03-26T19:40:51;13.17;;;4.23;;
59271;SDS011;45043;51.068;7.026;2023-03-26T19:43:57;11.20;;;3.90;;
59271;SDS011;45043;51.068;7.026;2023-03-26T19:47:01;12.90;;;3.57;;
59271;SDS011;45043;51.068;7.026;2023-03-26T19:53:32;10.67;;;3.63;;
59271;SDS011;45043;51.068;7.026;2023-03-26T19:56:42;11.13;;;4.03;;
59271;SDS011;45043;51.068;7.026;2023-03-26T19:59:42;13.40;;;3.57;;
59271;SDS011;45043;51.068;7.026;2023-03-26T20:02:43;14.93;;;4.00;;
59271;SDS011;45043;51.068;7.026;2023-03-26T20:05:47;8.33;;;3.60;;
59271;SDS011;45043;51.068;7.026;2023-03-26T20:08:48;12.73;;;4.00;;
59271;SDS011;45043;51.068;7.026;2023-03-26T20:11:52;13.20;;;4.07;;
59271;SDS011;45043;51.068;7.026;2023-03-26T20:14:53;13.80;;;4.17;;
59271;SDS011;45043;51.068;7.026;2023-03-26T20:17:53;11.30;;;4.50;;
59271;SDS011;45043;51.068;7.026;2023-03-26T20:20:54;13.80;;;4.80;;
59271;SDS011;45043;51.068;7.026;2023-03-26T20:23:55;12.17;;;4.57;;
59271;SDS011;45043;51.068;7.026;2023-03-26T20:26:55;11.30;;;4.17;;
59271;SDS011;45043;51.068;7.026;2023-03-26T20:29:56;13.97;;;4.43;;
59271;SDS011;45043;51.068;7.026;2023-03-26T20:32:56;14.80;;;3.97;;
59271;SDS011;45043;51.068;7.026;2023-03-26T20:35:57;13.03;;;3.73;;
59271;SDS011;45043;51.068;7.026;2023-03-26T20:38:58;11.90;;;3.73;;
59271;SDS011;45043;51.068;7.026;2023-03-26T20:41:59;11.47;;;4.27;;
59271;SDS011;45043;51.068;7.026;2023-03-26T20:45:01;11.80;;;4.10;;
59271;SDS011;45043;51.068;7.026;2023-03-26T20:48:03;15.77;;;4.60;;
59271;SDS011;45043;51.068;7.026;2023-03-26T20:51:04;18.90;;;4.50;;
59271;SDS011;45043;51.068;7.026;2023-03-26T20:54:04;12.37;;;4.50;;
59271;SDS011;45043;51.068;7.026;2023-03-26T20:57:05;11.60;;;4.13;;
59271;SDS011;45043;51.068;7.026;2023-03-26T21:00:06;10.50;;;4.23;;
59271;SDS011;45043;51.068;7.026;2023-03-26T21:03:16;13.80;;;3.80;;
59271;SDS011;45043;51.068;7.026;2023-03-26T21:06:17;14.13;;;3.97;;
59271;SDS011;45043;51.068;7.026;2023-03-26T21:09:18;12.40;;;4.00;;
59271;SDS011;45043;51.068;7.026;2023-03-26T21:12:26;12.43;;;3.37;;
59271;SDS011;45043;51.068;7.026;2023-03-26T21:15:32;12.13;;;3.77;;
59271;SDS011;45043;51.068;7.026;2023-03-26T21:18:33;8.73;;;3.37;;
59271;SDS011;45043;51.068;7.026;2023-03-26T21:25:37;10.03;;;3.60;;
59271;SDS011;45043;51.068;7.026;2023-03-26T21:28:47;14.33;;;4.03;;
59271;SDS011;45043;51.068;7.026;2023-03-26T21:31:48;8.50;;;3.50;;
59271;SDS011;45043;51.068;7.026;2023-03-26T21:34:50;14.13;;;4.53;;
59271;SDS011;45043;51.068;7.026;2023-03-26T21:37:51;9.83;;;4.07;;
59271;SDS011;45043;51.068;7.026;2023-03-26T21:40:52;15.40;;;3.73;;
59271;SDS011;45043;51.068;7.026;2023-03-26T21:43:54;12.73;;;4.17;;
59271;SDS011;45043;51.068;7.026;2023-03-26T21:46:55;11.40;;;3.50;;
59271;SDS011;45043;51.068;7.026;2023-03-26T21:49:55;12.53;;;4.80;;
59271;SDS011;45043;51.068;7.026;2023-03-26T21:52:56;12.00;;;4.33;;
59271;SDS011;45043;51.068;7.026;2023-03-26T21:56:02;11.17;;;3.63;;
59271;SDS011;45043;51.068;7.026;2023-03-26T22:05:42;8.40;;;3.40;;
59271;SDS011;45043;51.068;7.026;2023-03-26T22:08:54;9.20;;;3.80;;
59271;SDS011;45043;51.068;7.026;2023-03-26T22:11:55;17.30;;;3.47;;
59271;SDS011;45043;51.068;7.026;2023-03-26T22:14:55;11.43;;;3.63;;
59271;SDS011;45043;51.068;7.026;2023-03-26T22:18:00;9.57;;;3.60;;
59271;SDS011;45043;51.068;7.026;2023-03-26T22:21:01;12.30;;;3.03;;
59271;SDS011;45043;51.068;7.026;2023-03-26T22:24:02;12.37;;;4.43;;
59271;SDS011;45043;51.068;7.026;2023-03-26T22:27:06;14.40;;;3.80;;
59271;SDS011;45043;51.068;7.026;2023-03-26T22:30:07;11.60;;;2.77;;
59271;SDS011;45043;51.068;7.026;2023-03-26T22:33:08;10.73;;;3.87;;
59271;SDS011;45043;51.068;7.026;2023-03-26T22:36:10;13.87;;;3.30;;
59271;SDS011;45043;51.068;7.026;2023-03-26T22:39:11;14.27;;;4.20;;
59271;SDS011;45043;51.068;7.026;2023-03-26T22:42:12;9.37;;;3.07;;
59271;SDS011;45043;51.068;7.026;2023-03-26T22:45:13;12.27;;;3.73;;
59271;SDS011;45043;51.068;7.026;2023-03-26T22:48:13;14.80;;;3.30;;
59271;SDS011;45043;51.068;7.026;2023-03-26T22:51:15;14.10;;;3.63;;
59271;SDS011;45043;51.068;7.026;2023-03-26T22:54:16;11.07;;;3.80;;
59271;SDS011;45043;51.068;7.026;2023-03-26T22:57:17;10.83;;;3.03;;
59271;SDS011;45043;51.068;7.026;2023-03-26T23:00:18;13.77;;;3.30;;
59271;SDS011;45043;51.068;7.026;2023-03-26T23:03:21;11.83;;;3.10;;
59271;SDS011;45043;51.068;7.026;2023-03-26T23:06:22;11.40;;;2.90;;
59271;SDS011;45043;51.068;7.026;2023-03-26T23:09:23;12.57;;;3.47;;
59271;SDS011;45043;51.068;7.026;2023-03-26T23:12:23;12.37;;;3.63;;
59271;SDS011;45043;51.068;7.026;2023-03-26T23:15:24;12.87;;;3.77;;
59271;SDS011;45043;51.068;7.026;2023-03-26T23:18:27;11.20;;;3.63;;
59271;SDS011;45043;51.068;7.026;2023-03-26T23:21:27;8.00;;;3.10;;
59271;SDS011;45043;51.068;7.026;2023-03-26T23:24:28;11.10;;;3.43;;
59271;SDS011;45043;51.068;7.026;2023-03-26T23:27:29;9.83;;;2.70;;
59271;SDS011;45043;51.068;7.026;2023-03-26T23:30:29;9.60;;;3.23;;
59271;SDS011;45043;51.068;7.026;2023-03-26T23:33:30;12.40;;;3.60;;
59271;SDS011;45043;51.068;7.026;2023-03-26T23:36:34;15.03;;;3.67;;
59271;SDS011;45043;51.068;7.026;2023-03-26T23:39:35;11.77;;;3.60;;
59271;SDS011;45043;51.068;7.026;2023-03-26T23:42:36;12.07;;;3.67;;
59271;SDS011;45043;51.068;7.026;2023-03-26T23:45:37;10.37;;;3.37;;
59271;SDS011;45043;51.068;7.026;2023-03-26T23:48:37;10.47;;;3.30;;
59271;SDS011;45043;51.068;7.026;2023-03-26T23:51:41;15.20;;;3.20;;
59271;SDS011;45043;51.068;7.026;2023-03-26T23:54:41;15.30;;;4.07;;
59271;SDS011;45043;51.068;7.026;2023-03-26T23:57:42;10.70;;;3.50;;
